sensor_id;sensor_type;location;lat;lon;timestamp;P1;durP1;ratioP1;P2;durP2;ratioP2
35434;SDS011;21556;55.782;37.528;2023-05-10T00:02:00;11.15;;;4.90;;
35434;SDS011;21556;55.782;37.528;2023-05-10T00:04:26;6.90;;;4.63;;
35434;SDS011;21556;55.782;37.528;2023-05-10T00:06:53;11.65;;;4.93;;
35434;SDS011;21556;55.782;37.528;2023-05-10T00:09:20;8.77;;;4.43;;
35434;SDS011;21556;55.782;37.528;2023-05-10T00:11:47;5.20;;;3.65;;
35434;SDS011;21556;55.782;37.528;2023-05-10T00:14:16;7.75;;;3.90;;
35434;SDS011;21556;55.782;37.528;2023-05-10T00:16:42;8.13;;;4.20;;
35434;SDS011;21556;55.782;37.528;2023-05-10T00:19:08;6.80;;;4.03;;
35434;SDS011;21556;55.782;37.528;2023-05-10T00:21:35;9.02;;;3.97;;
35434;SDS011;21556;55.782;37.528;2023-05-10T00:24:01;7.65;;;4.35;;
35434;SDS011;21556;55.782;37.528;2023-05-10T00:26:28;6.97;;;4.22;;
35434;SDS011;21556;55.782;37.528;2023-05-10T00:28:56;7.22;;;3.80;;
35434;SDS011;21556;55.782;37.528;2023-05-10T00:31:25;7.07;;;3.97;;
35434;SDS011;21556;55.782;37.528;2023-05-10T00:33:56;7.90;;;3.95;;
35434;SDS011;21556;55.782;37.528;2023-05-10T00:36:24;6.93;;;4.63;;
35434;SDS011;21556;55.782;37.528;2023-05-10T00:38:51;8.30;;;4.30;;
35434;SDS011;21556;55.782;37.528;2023-05-10T00:41:18;10.07;;;4.63;;
35434;SDS011;21556;55.782;37.528;2023-05-10T00:43:46;8.27;;;4.00;;
35434;SDS011;21556;55.782;37.528;2023-05-10T00:46:12;7.65;;;4.10;;
35434;SDS011;21556;55.782;37.528;2023-05-10T00:48:41;7.13;;;4.43;;
35434;SDS011;21556;55.782;37.528;2023-05-10T00:51:09;6.65;;;4.60;;
35434;SDS011;21556;55.782;37.528;2023-05-10T00:53:37;17.37;;;5.97;;
35434;SDS011;21556;55.782;37.528;2023-05-10T00:56:03;7.53;;;3.65;;
35434;SDS011;21556;55.782;37.528;2023-05-10T00:58:30;9.07;;;4.18;;
35434;SDS011;21556;55.782;37.528;2023-05-10T01:00:56;8.70;;;4.05;;
35434;SDS011;21556;55.782;37.528;2023-05-10T01:03:24;7.60;;;3.97;;
35434;SDS011;21556;55.782;37.528;2023-05-10T01:05:51;6.57;;;4.05;;
35434;SDS011;21556;55.782;37.528;2023-05-10T01:08:24;7.45;;;4.07;;
35434;SDS011;21556;55.782;37.528;2023-05-10T01:10:55;7.10;;;4.32;;
35434;SDS011;21556;55.782;37.528;2023-05-10T01:16:02;5.93;;;4.38;;
35434;SDS011;21556;55.782;37.528;2023-05-10T01:18:34;7.40;;;4.70;;
35434;SDS011;21556;55.782;37.528;2023-05-10T01:29:46;7.18;;;4.10;;
35434;SDS011;21556;55.782;37.528;2023-05-10T01:34:59;7.57;;;3.75;;
35434;SDS011;21556;55.782;37.528;2023-05-10T01:37:33;8.57;;;3.97;;
35434;SDS011;21556;55.782;37.528;2023-05-10T01:40:08;8.52;;;4.00;;
35434;SDS011;21556;55.782;37.528;2023-05-10T01:42:55;4.90;;;3.72;;
35434;SDS011;21556;55.782;37.528;2023-05-10T01:45:50;4.43;;;3.83;;
35434;SDS011;21556;55.782;37.528;2023-05-10T01:48:39;6.07;;;4.47;;
35434;SDS011;21556;55.782;37.528;2023-05-10T01:51:17;5.22;;;4.07;;
35434;SDS011;21556;55.782;37.528;2023-05-10T01:53:58;5.78;;;4.07;;
35434;SDS011;21556;55.782;37.528;2023-05-10T01:56:31;4.78;;;3.78;;
35434;SDS011;21556;55.782;37.528;2023-05-10T01:59:01;5.20;;;4.18;;
35434;SDS011;21556;55.782;37.528;2023-05-10T02:01:34;5.63;;;3.63;;
35434;SDS011;21556;55.782;37.528;2023-05-10T02:04:04;5.88;;;3.80;;
35434;SDS011;21556;55.782;37.528;2023-05-10T02:06:33;6.40;;;3.78;;
35434;SDS011;21556;55.782;37.528;2023-05-10T02:09:00;4.63;;;3.88;;
35434;SDS011;21556;55.782;37.528;2023-05-10T02:11:29;4.80;;;3.78;;
35434;SDS011;21556;55.782;37.528;2023-05-10T02:13:57;6.73;;;3.93;;
35434;SDS011;21556;55.782;37.528;2023-05-10T02:16:29;6.07;;;3.78;;
35434;SDS011;21556;55.782;37.528;2023-05-10T02:18:56;5.05;;;3.70;;
35434;SDS011;21556;55.782;37.528;2023-05-10T02:23:52;7.00;;;4.53;;
35434;SDS011;21556;55.782;37.528;2023-05-10T02:26:20;6.32;;;3.13;;
35434;SDS011;21556;55.782;37.528;2023-05-10T02:28:53;7.03;;;4.05;;
35434;SDS011;21556;55.782;37.528;2023-05-10T02:31:21;7.57;;;3.63;;
35434;SDS011;21556;55.782;37.528;2023-05-10T02:33:49;7.63;;;4.35;;
35434;SDS011;21556;55.782;37.528;2023-05-10T02:36:17;10.32;;;4.65;;
35434;SDS011;21556;55.782;37.528;2023-05-10T02:38:49;9.45;;;4.13;;
35434;SDS011;21556;55.782;37.528;2023-05-10T02:41:20;7.18;;;4.20;;
35434;SDS011;21556;55.782;37.528;2023-05-10T02:43:52;7.53;;;4.72;;
35434;SDS011;21556;55.782;37.528;2023-05-10T02:46:23;5.30;;;3.58;;
35434;SDS011;21556;55.782;37.528;2023-05-10T02:48:49;5.53;;;3.85;;
35434;SDS011;21556;55.782;37.528;2023-05-10T02:51:16;7.22;;;4.28;;
35434;SDS011;21556;55.782;37.528;2023-05-10T02:53:45;9.38;;;5.50;;
35434;SDS011;21556;55.782;37.528;2023-05-10T02:56:15;6.07;;;4.40;;
35434;SDS011;21556;55.782;37.528;2023-05-10T02:59:02;7.75;;;4.78;;
35434;SDS011;21556;55.782;37.528;2023-05-10T03:01:31;5.28;;;3.88;;
35434;SDS011;21556;55.782;37.528;2023-05-10T03:03:58;6.43;;;3.80;;
35434;SDS011;21556;55.782;37.528;2023-05-10T03:06:26;8.95;;;4.90;;
35434;SDS011;21556;55.782;37.528;2023-05-10T03:08:54;7.85;;;4.10;;
35434;SDS011;21556;55.782;37.528;2023-05-10T03:11:28;7.63;;;4.18;;
35434;SDS011;21556;55.782;37.528;2023-05-10T03:14:31;8.23;;;4.63;;
35434;SDS011;21556;55.782;37.528;2023-05-10T03:17:14;5.43;;;4.30;;
35434;SDS011;21556;55.782;37.528;2023-05-10T03:22:23;8.93;;;5.00;;
35434;SDS011;21556;55.782;37.528;2023-05-10T03:24:58;7.40;;;4.30;;
35434;SDS011;21556;55.782;37.528;2023-05-10T03:27:36;17.05;;;5.13;;
35434;SDS011;21556;55.782;37.528;2023-05-10T03:30:13;14.32;;;5.38;;
35434;SDS011;21556;55.782;37.528;2023-05-10T03:32:40;12.88;;;5.53;;
35434;SDS011;21556;55.782;37.528;2023-05-10T03:35:11;16.15;;;4.88;;
35434;SDS011;21556;55.782;37.528;2023-05-10T03:37:41;10.68;;;4.53;;
35434;SDS011;21556;55.782;37.528;2023-05-10T03:40:09;13.00;;;4.88;;
35434;SDS011;21556;55.782;37.528;2023-05-10T03:42:38;13.02;;;5.15;;
35434;SDS011;21556;55.782;37.528;2023-05-10T03:45:08;9.68;;;5.20;;
35434;SDS011;21556;55.782;37.528;2023-05-10T03:47:35;11.52;;;4.90;;
35434;SDS011;21556;55.782;37.528;2023-05-10T03:50:02;8.95;;;4.70;;
35434;SDS011;21556;55.782;37.528;2023-05-10T03:52:32;10.95;;;4.90;;
35434;SDS011;21556;55.782;37.528;2023-05-10T03:54:58;8.93;;;5.03;;
35434;SDS011;21556;55.782;37.528;2023-05-10T03:57:25;7.40;;;4.65;;
35434;SDS011;21556;55.782;37.528;2023-05-10T03:59:56;9.40;;;4.63;;
35434;SDS011;21556;55.782;37.528;2023-05-10T04:02:23;7.22;;;4.13;;
35434;SDS011;21556;55.782;37.528;2023-05-10T04:05:08;10.50;;;4.78;;
35434;SDS011;21556;55.782;37.528;2023-05-10T04:07:36;9.98;;;4.50;;
35434;SDS011;21556;55.782;37.528;2023-05-10T04:10:04;8.57;;;4.40;;
35434;SDS011;21556;55.782;37.528;2023-05-10T04:12:32;9.43;;;4.90;;
35434;SDS011;21556;55.782;37.528;2023-05-10T04:14:59;8.80;;;4.28;;
35434;SDS011;21556;55.782;37.528;2023-05-10T04:17:29;9.10;;;4.65;;
35434;SDS011;21556;55.782;37.528;2023-05-10T04:19:59;9.32;;;5.15;;
35434;SDS011;21556;55.782;37.528;2023-05-10T04:22:40;15.68;;;4.97;;
35434;SDS011;21556;55.782;37.528;2023-05-10T04:25:07;19.25;;;5.35;;
35434;SDS011;21556;55.782;37.528;2023-05-10T04:30:29;9.85;;;5.30;;
35434;SDS011;21556;55.782;37.528;2023-05-10T04:32:55;13.65;;;5.60;;
35434;SDS011;21556;55.782;37.528;2023-05-10T04:35:29;9.20;;;4.90;;
35434;SDS011;21556;55.782;37.528;2023-05-10T04:37:58;12.32;;;5.18;;
35434;SDS011;21556;55.782;37.528;2023-05-10T04:40:25;9.95;;;5.85;;
35434;SDS011;21556;55.782;37.528;2023-05-10T04:43:01;12.88;;;5.63;;
35434;SDS011;21556;55.782;37.528;2023-05-10T04:45:29;13.95;;;6.13;;
35434;SDS011;21556;55.782;37.528;2023-05-10T04:48:07;11.25;;;4.68;;
35434;SDS011;21556;55.782;37.528;2023-05-10T04:51:17;9.05;;;4.57;;
35434;SDS011;21556;55.782;37.528;2023-05-10T04:55:11;17.02;;;5.82;;
35434;SDS011;21556;55.782;37.528;2023-05-10T04:58:25;12.70;;;5.15;;
35434;SDS011;21556;55.782;37.528;2023-05-10T05:04:31;15.25;;;4.60;;
35434;SDS011;21556;55.782;37.528;2023-05-10T05:07:40;10.43;;;4.57;;
35434;SDS011;21556;55.782;37.528;2023-05-10T05:10:29;11.57;;;4.05;;
35434;SDS011;21556;55.782;37.528;2023-05-10T05:13:59;6.03;;;4.07;;
35434;SDS011;21556;55.782;37.528;2023-05-10T05:16:55;8.52;;;4.18;;
35434;SDS011;21556;55.782;37.528;2023-05-10T05:19:30;8.50;;;4.10;;
35434;SDS011;21556;55.782;37.528;2023-05-10T05:22:39;10.90;;;4.90;;
35434;SDS011;21556;55.782;37.528;2023-05-10T05:25:19;13.85;;;4.53;;
35434;SDS011;21556;55.782;37.528;2023-05-10T05:28:08;11.85;;;4.60;;
35434;SDS011;21556;55.782;37.528;2023-05-10T05:31:30;14.80;;;5.25;;
35434;SDS011;21556;55.782;37.528;2023-05-10T05:34:37;10.30;;;4.30;;
35434;SDS011;21556;55.782;37.528;2023-05-10T05:37:18;11.38;;;4.28;;
35434;SDS011;21556;55.782;37.528;2023-05-10T05:40:19;6.28;;;3.90;;
35434;SDS011;21556;55.782;37.528;2023-05-10T05:43:24;10.68;;;3.95;;
35434;SDS011;21556;55.782;37.528;2023-05-10T05:46:29;7.90;;;3.80;;
35434;SDS011;21556;55.782;37.528;2023-05-10T05:52:42;10.88;;;4.57;;
35434;SDS011;21556;55.782;37.528;2023-05-10T05:55:25;8.52;;;4.03;;
35434;SDS011;21556;55.782;37.528;2023-05-10T05:59:12;11.10;;;4.57;;
35434;SDS011;21556;55.782;37.528;2023-05-10T06:01:54;7.50;;;3.65;;
35434;SDS011;21556;55.782;37.528;2023-05-10T06:05:06;10.38;;;3.70;;
35434;SDS011;21556;55.782;37.528;2023-05-10T06:12:29;7.07;;;5.03;;
35434;SDS011;21556;55.782;37.528;2023-05-10T06:21:54;11.52;;;4.43;;
35434;SDS011;21556;55.782;37.528;2023-05-10T06:24:55;8.48;;;3.80;;
35434;SDS011;21556;55.782;37.528;2023-05-10T06:27:53;6.70;;;3.55;;
35434;SDS011;21556;55.782;37.528;2023-05-10T06:30:43;9.07;;;3.38;;
35434;SDS011;21556;55.782;37.528;2023-05-10T06:33:20;5.10;;;2.80;;
35434;SDS011;21556;55.782;37.528;2023-05-10T06:36:10;8.07;;;3.03;;
35434;SDS011;21556;55.782;37.528;2023-05-10T06:38:44;5.78;;;2.13;;
35434;SDS011;21556;55.782;37.528;2023-05-10T06:41:42;9.80;;;3.50;;
35434;SDS011;21556;55.782;37.528;2023-05-10T06:44:09;6.40;;;2.90;;
35434;SDS011;21556;55.782;37.528;2023-05-10T06:46:35;6.88;;;3.40;;
35434;SDS011;21556;55.782;37.528;2023-05-10T06:49:05;7.70;;;2.95;;
35434;SDS011;21556;55.782;37.528;2023-05-10T06:51:32;17.25;;;4.13;;
35434;SDS011;21556;55.782;37.528;2023-05-10T06:53:58;8.98;;;3.60;;
35434;SDS011;21556;55.782;37.528;2023-05-10T06:56:25;9.23;;;4.43;;
35434;SDS011;21556;55.782;37.528;2023-05-10T06:58:54;7.75;;;3.45;;
35434;SDS011;21556;55.782;37.528;2023-05-10T07:01:23;9.15;;;2.67;;
35434;SDS011;21556;55.782;37.528;2023-05-10T07:03:50;6.32;;;2.92;;
35434;SDS011;21556;55.782;37.528;2023-05-10T07:06:18;3.33;;;2.17;;
35434;SDS011;21556;55.782;37.528;2023-05-10T07:08:45;3.67;;;2.55;;
35434;SDS011;21556;55.782;37.528;2023-05-10T07:11:11;4.30;;;2.75;;
35434;SDS011;21556;55.782;37.528;2023-05-10T07:13:37;5.75;;;3.10;;
35434;SDS011;21556;55.782;37.528;2023-05-10T07:16:06;6.40;;;3.08;;
35434;SDS011;21556;55.782;37.528;2023-05-10T07:18:33;7.57;;;2.65;;
35434;SDS011;21556;55.782;37.528;2023-05-10T07:20:59;7.50;;;2.55;;
35434;SDS011;21556;55.782;37.528;2023-05-10T07:23:25;3.58;;;2.67;;
35434;SDS011;21556;55.782;37.528;2023-05-10T07:25:51;5.82;;;2.75;;
35434;SDS011;21556;55.782;37.528;2023-05-10T07:28:18;4.00;;;2.60;;
35434;SDS011;21556;55.782;37.528;2023-05-10T07:30:44;6.00;;;2.65;;
35434;SDS011;21556;55.782;37.528;2023-05-10T07:33:13;7.00;;;2.70;;
35434;SDS011;21556;55.782;37.528;2023-05-10T07:35:40;9.07;;;3.08;;
35434;SDS011;21556;55.782;37.528;2023-05-10T07:38:06;5.05;;;2.90;;
35434;SDS011;21556;55.782;37.528;2023-05-10T07:40:32;7.93;;;2.63;;
35434;SDS011;21556;55.782;37.528;2023-05-10T07:42:59;4.47;;;2.75;;
35434;SDS011;21556;55.782;37.528;2023-05-10T07:45:28;7.53;;;2.85;;
35434;SDS011;21556;55.782;37.528;2023-05-10T07:47:54;5.50;;;2.95;;
35434;SDS011;21556;55.782;37.528;2023-05-10T07:50:20;5.57;;;2.50;;
35434;SDS011;21556;55.782;37.528;2023-05-10T07:52:47;4.50;;;2.58;;
35434;SDS011;21556;55.782;37.528;2023-05-10T07:55:13;5.15;;;2.00;;
35434;SDS011;21556;55.782;37.528;2023-05-10T07:57:40;6.93;;;2.13;;
35434;SDS011;21556;55.782;37.528;2023-05-10T08:00:08;3.30;;;2.20;;
35434;SDS011;21556;55.782;37.528;2023-05-10T08:02:40;6.18;;;2.33;;
35434;SDS011;21556;55.782;37.528;2023-05-10T08:05:07;8.07;;;2.70;;
35434;SDS011;21556;55.782;37.528;2023-05-10T08:07:33;3.45;;;1.77;;
35434;SDS011;21556;55.782;37.528;2023-05-10T08:09:59;4.00;;;2.00;;
35434;SDS011;21556;55.782;37.528;2023-05-10T08:12:26;6.60;;;2.15;;
35434;SDS011;21556;55.782;37.528;2023-05-10T08:14:52;6.65;;;2.55;;
35434;SDS011;21556;55.782;37.528;2023-05-10T08:17:18;5.00;;;1.92;;
35434;SDS011;21556;55.782;37.528;2023-05-10T08:19:45;3.60;;;1.67;;
35434;SDS011;21556;55.782;37.528;2023-05-10T08:22:11;5.70;;;2.40;;
35434;SDS011;21556;55.782;37.528;2023-05-10T08:24:37;5.60;;;2.50;;
35434;SDS011;21556;55.782;37.528;2023-05-10T08:27:04;13.10;;;2.50;;
35434;SDS011;21556;55.782;37.528;2023-05-10T08:29:31;5.90;;;2.70;;
35434;SDS011;21556;55.782;37.528;2023-05-10T08:31:57;3.85;;;2.17;;
35434;SDS011;21556;55.782;37.528;2023-05-10T08:34:23;6.78;;;2.72;;
35434;SDS011;21556;55.782;37.528;2023-05-10T08:36:49;4.75;;;2.47;;
35434;SDS011;21556;55.782;37.528;2023-05-10T08:39:14;3.50;;;2.38;;
35434;SDS011;21556;55.782;37.528;2023-05-10T08:41:40;3.85;;;2.45;;
35434;SDS011;21556;55.782;37.528;2023-05-10T08:44:10;5.40;;;2.38;;
35434;SDS011;21556;55.782;37.528;2023-05-10T08:46:37;5.70;;;2.30;;
35434;SDS011;21556;55.782;37.528;2023-05-10T08:49:09;5.50;;;2.30;;
35434;SDS011;21556;55.782;37.528;2023-05-10T08:51:40;9.80;;;2.30;;
35434;SDS011;21556;55.782;37.528;2023-05-10T08:54:09;6.70;;;2.38;;
35434;SDS011;21556;55.782;37.528;2023-05-10T08:56:37;6.22;;;2.10;;
35434;SDS011;21556;55.782;37.528;2023-05-10T08:59:03;7.18;;;2.13;;
35434;SDS011;21556;55.782;37.528;2023-05-10T09:01:29;3.05;;;1.70;;
35434;SDS011;21556;55.782;37.528;2023-05-10T09:03:57;3.60;;;1.58;;
35434;SDS011;21556;55.782;37.528;2023-05-10T09:06:23;4.10;;;1.60;;
35434;SDS011;21556;55.782;37.528;2023-05-10T09:08:50;5.57;;;1.35;;
35434;SDS011;21556;55.782;37.528;2023-05-10T09:11:17;2.17;;;1.10;;
35434;SDS011;21556;55.782;37.528;2023-05-10T09:13:46;2.53;;;1.60;;
35434;SDS011;21556;55.782;37.528;2023-05-10T09:16:15;5.13;;;1.45;;
35434;SDS011;21556;55.782;37.528;2023-05-10T09:18:41;2.88;;;1.10;;
35434;SDS011;21556;55.782;37.528;2023-05-10T09:21:07;2.15;;;1.20;;
35434;SDS011;21556;55.782;37.528;2023-05-10T09:23:35;4.75;;;1.40;;
35434;SDS011;21556;55.782;37.528;2023-05-10T09:26:03;2.38;;;1.45;;
35434;SDS011;21556;55.782;37.528;2023-05-10T09:28:35;3.60;;;3.30;;
35434;SDS011;21556;55.782;37.528;2023-05-10T09:31:16;2.53;;;1.83;;
35434;SDS011;21556;55.782;37.528;2023-05-10T09:33:50;2.40;;;1.35;;
35434;SDS011;21556;55.782;37.528;2023-05-10T09:36:17;3.83;;;1.90;;
35434;SDS011;21556;55.782;37.528;2023-05-10T09:38:47;4.65;;;2.05;;
35434;SDS011;21556;55.782;37.528;2023-05-10T09:41:15;5.03;;;1.90;;
35434;SDS011;21556;55.782;37.528;2023-05-10T09:43:45;5.80;;;1.92;;
35434;SDS011;21556;55.782;37.528;2023-05-10T09:46:12;3.65;;;2.15;;
35434;SDS011;21556;55.782;37.528;2023-05-10T09:48:49;3.67;;;2.13;;
35434;SDS011;21556;55.782;37.528;2023-05-10T09:51:22;4.00;;;1.83;;
35434;SDS011;21556;55.782;37.528;2023-05-10T09:54:10;6.55;;;1.77;;
35434;SDS011;21556;55.782;37.528;2023-05-10T09:56:36;4.13;;;1.75;;
35434;SDS011;21556;55.782;37.528;2023-05-10T09:59:04;8.85;;;2.40;;
35434;SDS011;21556;55.782;37.528;2023-05-10T10:01:33;5.05;;;1.88;;
35434;SDS011;21556;55.782;37.528;2023-05-10T10:04:04;3.53;;;1.92;;
35434;SDS011;21556;55.782;37.528;2023-05-10T10:06:39;5.03;;;2.22;;
35434;SDS011;21556;55.782;37.528;2023-05-10T10:09:09;3.90;;;2.10;;
35434;SDS011;21556;55.782;37.528;2023-05-10T10:11:37;7.57;;;2.13;;
35434;SDS011;21556;55.782;37.528;2023-05-10T10:14:05;5.15;;;1.98;;
35434;SDS011;21556;55.782;37.528;2023-05-10T10:16:36;4.65;;;1.95;;
35434;SDS011;21556;55.782;37.528;2023-05-10T10:19:03;5.82;;;2.25;;
35434;SDS011;21556;55.782;37.528;2023-05-10T10:21:33;4.45;;;2.38;;
35434;SDS011;21556;55.782;37.528;2023-05-10T10:24:01;4.15;;;1.95;;
35434;SDS011;21556;55.782;37.528;2023-05-10T10:26:36;3.85;;;2.10;;
35434;SDS011;21556;55.782;37.528;2023-05-10T10:35:04;3.10;;;2.20;;
35434;SDS011;21556;55.782;37.528;2023-05-10T10:37:46;5.15;;;2.08;;
35434;SDS011;21556;55.782;37.528;2023-05-10T10:40:32;5.07;;;2.30;;
35434;SDS011;21556;55.782;37.528;2023-05-10T10:48:41;5.03;;;1.90;;
35434;SDS011;21556;55.782;37.528;2023-05-10T10:51:14;4.15;;;2.08;;
35434;SDS011;21556;55.782;37.528;2023-05-10T10:53:42;4.43;;;2.40;;
35434;SDS011;21556;55.782;37.528;2023-05-10T10:56:10;6.07;;;1.98;;
35434;SDS011;21556;55.782;37.528;2023-05-10T10:58:39;5.35;;;2.00;;
35434;SDS011;21556;55.782;37.528;2023-05-10T11:01:15;2.80;;;1.67;;
35434;SDS011;21556;55.782;37.528;2023-05-10T11:04:16;3.88;;;1.75;;
35434;SDS011;21556;55.782;37.528;2023-05-10T11:06:48;5.35;;;1.90;;
35434;SDS011;21556;55.782;37.528;2023-05-10T11:09:17;3.17;;;2.08;;
35434;SDS011;21556;55.782;37.528;2023-05-10T11:11:51;4.32;;;1.85;;
35434;SDS011;21556;55.782;37.528;2023-05-10T11:14:22;4.25;;;1.88;;
35434;SDS011;21556;55.782;37.528;2023-05-10T11:16:48;6.22;;;1.65;;
35434;SDS011;21556;55.782;37.528;2023-05-10T11:19:17;3.28;;;1.83;;
35434;SDS011;21556;55.782;37.528;2023-05-10T11:24:40;3.58;;;1.73;;
35434;SDS011;21556;55.782;37.528;2023-05-10T11:27:27;6.25;;;2.00;;
35434;SDS011;21556;55.782;37.528;2023-05-10T11:29:55;7.50;;;2.35;;
35434;SDS011;21556;55.782;37.528;2023-05-10T11:32:24;11.55;;;2.40;;
35434;SDS011;21556;55.782;37.528;2023-05-10T11:35:07;3.90;;;2.28;;
35434;SDS011;21556;55.782;37.528;2023-05-10T11:37:54;4.53;;;1.83;;
35434;SDS011;21556;55.782;37.528;2023-05-10T11:40:23;5.38;;;1.95;;
35434;SDS011;21556;55.782;37.528;2023-05-10T11:42:55;3.67;;;1.67;;
35434;SDS011;21556;55.782;37.528;2023-05-10T11:45:25;6.00;;;1.80;;
35434;SDS011;21556;55.782;37.528;2023-05-10T11:47:56;3.17;;;1.55;;
35434;SDS011;21556;55.782;37.528;2023-05-10T11:50:25;6.07;;;1.70;;
35434;SDS011;21556;55.782;37.528;2023-05-10T11:52:52;4.97;;;1.67;;
35434;SDS011;21556;55.782;37.528;2023-05-10T11:55:22;6.28;;;2.22;;
35434;SDS011;21556;55.782;37.528;2023-05-10T11:57:52;2.33;;;1.80;;
35434;SDS011;21556;55.782;37.528;2023-05-10T12:00:21;4.30;;;2.00;;
35434;SDS011;21556;55.782;37.528;2023-05-10T12:02:51;2.35;;;1.55;;
35434;SDS011;21556;55.782;37.528;2023-05-10T12:05:18;3.42;;;1.80;;
35434;SDS011;21556;55.782;37.528;2023-05-10T12:07:46;4.38;;;1.80;;
35434;SDS011;21556;55.782;37.528;2023-05-10T12:10:24;4.05;;;1.88;;
35434;SDS011;21556;55.782;37.528;2023-05-10T12:12:52;3.25;;;1.85;;
35434;SDS011;21556;55.782;37.528;2023-05-10T12:15:23;7.03;;;2.30;;
35434;SDS011;21556;55.782;37.528;2023-05-10T12:17:50;3.47;;;1.60;;
35434;SDS011;21556;55.782;37.528;2023-05-10T12:20:17;4.80;;;1.98;;
35434;SDS011;21556;55.782;37.528;2023-05-10T12:22:56;2.83;;;1.60;;
35434;SDS011;21556;55.782;37.528;2023-05-10T12:25:42;4.90;;;1.92;;
35434;SDS011;21556;55.782;37.528;2023-05-10T12:28:11;3.83;;;1.95;;
35434;SDS011;21556;55.782;37.528;2023-05-10T12:30:38;3.15;;;1.88;;
35434;SDS011;21556;55.782;37.528;2023-05-10T12:33:09;4.45;;;2.03;;
35434;SDS011;21556;55.782;37.528;2023-05-10T12:35:51;6.25;;;1.92;;
35434;SDS011;21556;55.782;37.528;2023-05-10T12:38:38;3.08;;;1.67;;
35434;SDS011;21556;55.782;37.528;2023-05-10T12:41:09;3.40;;;1.88;;
35434;SDS011;21556;55.782;37.528;2023-05-10T12:43:46;5.15;;;1.77;;
35434;SDS011;21556;55.782;37.528;2023-05-10T12:46:14;4.72;;;1.60;;
35434;SDS011;21556;55.782;37.528;2023-05-10T12:48:43;5.00;;;2.25;;
35434;SDS011;21556;55.782;37.528;2023-05-10T12:51:23;7.68;;;2.53;;
35434;SDS011;21556;55.782;37.528;2023-05-10T12:53:52;9.77;;;1.80;;
35434;SDS011;21556;55.782;37.528;2023-05-10T12:56:33;3.33;;;2.00;;
35434;SDS011;21556;55.782;37.528;2023-05-10T12:59:03;5.35;;;1.95;;
35434;SDS011;21556;55.782;37.528;2023-05-10T13:01:29;5.45;;;1.98;;
35434;SDS011;21556;55.782;37.528;2023-05-10T13:03:58;3.40;;;1.63;;
35434;SDS011;21556;55.782;37.528;2023-05-10T13:06:26;4.82;;;1.95;;
35434;SDS011;21556;55.782;37.528;2023-05-10T13:08:59;5.97;;;2.17;;
35434;SDS011;21556;55.782;37.528;2023-05-10T13:11:30;5.85;;;2.90;;
35434;SDS011;21556;55.782;37.528;2023-05-10T13:14:02;4.82;;;1.80;;
35434;SDS011;21556;55.782;37.528;2023-05-10T13:16:29;3.70;;;1.73;;
35434;SDS011;21556;55.782;37.528;2023-05-10T13:18:57;7.10;;;2.43;;
35434;SDS011;21556;55.782;37.528;2023-05-10T13:21:24;4.38;;;1.67;;
35434;SDS011;21556;55.782;37.528;2023-05-10T13:23:50;4.05;;;1.92;;
35434;SDS011;21556;55.782;37.528;2023-05-10T13:26:17;6.57;;;1.90;;
35434;SDS011;21556;55.782;37.528;2023-05-10T13:28:44;5.38;;;1.90;;
35434;SDS011;21556;55.782;37.528;2023-05-10T13:31:11;4.67;;;2.40;;
35434;SDS011;21556;55.782;37.528;2023-05-10T13:33:38;5.50;;;1.58;;
35434;SDS011;21556;55.782;37.528;2023-05-10T13:36:04;7.22;;;1.98;;
35434;SDS011;21556;55.782;37.528;2023-05-10T13:38:30;3.97;;;1.70;;
35434;SDS011;21556;55.782;37.528;2023-05-10T13:41:01;3.30;;;1.58;;
35434;SDS011;21556;55.782;37.528;2023-05-10T14:03:16;6.30;;;1.80;;
35434;SDS011;21556;55.782;37.528;2023-05-10T14:07:18;7.10;;;2.20;;
35434;SDS011;21556;55.782;37.528;2023-05-10T14:11:06;5.47;;;1.90;;
35434;SDS011;21556;55.782;37.528;2023-05-10T14:17:46;5.35;;;1.92;;
35434;SDS011;21556;55.782;37.528;2023-05-10T14:20:23;5.70;;;1.90;;
35434;SDS011;21556;55.782;37.528;2023-05-10T14:24:12;6.40;;;2.92;;
35434;SDS011;21556;55.782;37.528;2023-05-10T14:58:11;3.15;;;1.83;;
35434;SDS011;21556;55.782;37.528;2023-05-10T15:00:40;6.60;;;2.30;;
35434;SDS011;21556;55.782;37.528;2023-05-10T15:03:07;4.78;;;2.13;;
35434;SDS011;21556;55.782;37.528;2023-05-10T15:05:37;7.95;;;2.15;;
35434;SDS011;21556;55.782;37.528;2023-05-10T15:08:05;8.10;;;1.92;;
35434;SDS011;21556;55.782;37.528;2023-05-10T15:10:35;2.83;;;1.48;;
35434;SDS011;21556;55.782;37.528;2023-05-10T15:13:05;5.78;;;1.88;;
35434;SDS011;21556;55.782;37.528;2023-05-10T15:15:37;3.80;;;1.95;;
35434;SDS011;21556;55.782;37.528;2023-05-10T15:18:04;4.85;;;2.00;;
35434;SDS011;21556;55.782;37.528;2023-05-10T15:20:31;7.93;;;2.30;;
35434;SDS011;21556;55.782;37.528;2023-05-10T15:23:00;7.95;;;2.78;;
35434;SDS011;21556;55.782;37.528;2023-05-10T15:25:34;10.73;;;2.55;;
35434;SDS011;21556;55.782;37.528;2023-05-10T15:28:03;5.05;;;2.30;;
35434;SDS011;21556;55.782;37.528;2023-05-10T15:30:32;6.53;;;2.03;;
35434;SDS011;21556;55.782;37.528;2023-05-10T15:33:02;7.55;;;2.28;;
35434;SDS011;21556;55.782;37.528;2023-05-10T15:35:29;4.47;;;1.90;;
35434;SDS011;21556;55.782;37.528;2023-05-10T15:37:55;4.63;;;2.38;;
35434;SDS011;21556;55.782;37.528;2023-05-10T15:40:23;8.70;;;2.90;;
35434;SDS011;21556;55.782;37.528;2023-05-10T15:42:49;8.88;;;2.40;;
35434;SDS011;21556;55.782;37.528;2023-05-10T15:45:16;4.55;;;2.55;;
35434;SDS011;21556;55.782;37.528;2023-05-10T15:47:43;7.63;;;2.38;;
35434;SDS011;21556;55.782;37.528;2023-05-10T15:50:11;4.95;;;2.30;;
35434;SDS011;21556;55.782;37.528;2023-05-10T15:52:39;6.80;;;2.60;;
35434;SDS011;21556;55.782;37.528;2023-05-10T15:55:07;9.93;;;3.03;;
35434;SDS011;21556;55.782;37.528;2023-05-10T15:57:40;7.13;;;2.53;;
35434;SDS011;21556;55.782;37.528;2023-05-10T16:00:09;8.27;;;2.65;;
35434;SDS011;21556;55.782;37.528;2023-05-10T16:02:39;3.35;;;2.13;;
35434;SDS011;21556;55.782;37.528;2023-05-10T16:05:15;12.02;;;6.15;;
35434;SDS011;21556;55.782;37.528;2023-05-10T16:07:41;7.75;;;2.47;;
35434;SDS011;21556;55.782;37.528;2023-05-10T16:10:09;5.03;;;2.58;;
35434;SDS011;21556;55.782;37.528;2023-05-10T16:12:37;3.40;;;2.40;;
35434;SDS011;21556;55.782;37.528;2023-05-10T16:15:08;8.15;;;2.63;;
35434;SDS011;21556;55.782;37.528;2023-05-10T16:17:36;4.43;;;2.05;;
35434;SDS011;21556;55.782;37.528;2023-05-10T16:20:06;4.78;;;2.38;;
35434;SDS011;21556;55.782;37.528;2023-05-10T16:22:36;6.70;;;1.98;;
35434;SDS011;21556;55.782;37.528;2023-05-10T16:25:06;8.10;;;2.30;;
35434;SDS011;21556;55.782;37.528;2023-05-10T16:27:36;4.72;;;2.38;;
35434;SDS011;21556;55.782;37.528;2023-05-10T16:30:08;2.90;;;2.10;;
35434;SDS011;21556;55.782;37.528;2023-05-10T16:32:37;4.97;;;2.08;;
35434;SDS011;21556;55.782;37.528;2023-05-10T16:35:06;4.03;;;2.05;;
35434;SDS011;21556;55.782;37.528;2023-05-10T16:37:35;5.97;;;2.25;;
35434;SDS011;21556;55.782;37.528;2023-05-10T16:40:06;4.75;;;2.30;;
35434;SDS011;21556;55.782;37.528;2023-05-10T16:42:38;6.10;;;2.33;;
35434;SDS011;21556;55.782;37.528;2023-05-10T16:45:12;3.25;;;1.90;;
35434;SDS011;21556;55.782;37.528;2023-05-10T16:47:42;3.88;;;2.10;;
35434;SDS011;21556;55.782;37.528;2023-05-10T16:50:09;6.88;;;2.30;;
35434;SDS011;21556;55.782;37.528;2023-05-10T16:52:56;4.20;;;2.20;;
35434;SDS011;21556;55.782;37.528;2023-05-10T16:55:39;3.85;;;1.80;;
35434;SDS011;21556;55.782;37.528;2023-05-10T16:58:35;5.10;;;2.10;;
35434;SDS011;21556;55.782;37.528;2023-05-10T17:03:46;10.13;;;3.75;;